Time;durP1;ratioP1;P1;durP2;ratioP2;P2;SDS_P1;SDS_P2;PMS_P1;PMS_P2;Temp;Humidity;BMP_temperature;BMP_pressure;BME280_temperature;BME280_humidity;BME280_pressure;Samples;Min_cycle;Max_cycle;Signal;HPM_P1;HPM_P2
2023/10/16 00:01:09;;;;;;;4.13;3.05;;;;;;;5.08;63.76;101068.28;5080711;28;20054;-53
2023/10/16 00:03:43;;;;;;;6.88;3.15;;;;;;;5.09;63.80;101064.00;5088590;28;20135;-48
2023/10/16 00:06:12;;;;;;;10.07;3.53;;;;;;;5.08;64.56;101068.28;5081639;28;20048;-50
2023/10/16 00:08:47;;;;;;;6.93;2.30;;;;;;;5.07;64.44;101066.50;5087278;28;20052;-47
2023/10/16 00:11:16;;;;;;;6.82;2.40;;;;;;;5.06;64.29;101063.91;5083101;28;20708;-48
2023/10/16 00:13:47;;;;;;;4.70;2.25;;;;;;;5.04;64.23;101063.84;5088469;28;20043;-48
2023/10/16 00:16:16;;;;;;;4.95;1.73;;;;;;;5.03;64.71;101062.09;5087078;28;20587;-50
2023/10/16 00:18:45;;;;;;;8.32;3.20;;;;;;;5.02;64.46;101065.47;5088464;28;20510;-47
2023/10/16 00:21:13;;;;;;;5.22;2.60;;;;;;;5.01;64.83;101066.31;5067020;28;20072;-46
2023/10/16 00:23:41;;;;;;;4.22;2.42;;;;;;;5.01;64.63;101061.16;5086206;28;20455;-46
2023/10/16 00:26:12;;;;;;;6.32;2.63;;;;;;;4.99;64.40;101052.53;5080586;28;20058;-48
2023/10/16 00:28:44;;;;;;;2.70;1.60;;;;;;;4.97;64.37;101055.03;5089676;28;20051;-50
2023/10/16 00:31:20;;;;;;;7.53;2.03;;;;;;;4.96;64.63;101052.44;5088794;28;20080;-46
2023/10/16 00:33:51;;;;;;;6.40;2.40;;;;;;;4.93;64.43;101057.47;5087639;28;20084;-47
2023/10/16 00:36:18;;;;;;;;;;;;;;;4.83;64.54;101051.97;5087608;28;20131;-51
2023/10/16 00:38:51;;;;;;;4.70;2.75;;;;;;;4.85;65.01;101055.47;5088093;28;19946;-51
2023/10/16 00:41:23;;;;;;;4.43;3.00;;;;;;;4.85;64.91;101054.59;5086073;28;20075;-48
2023/10/16 00:43:50;;;;;;;5.50;2.20;;;;;;;4.84;65.05;101053.72;5087608;28;20097;-47
2023/10/16 00:46:36;;;;;;;4.13;2.13;;;;;;;4.79;65.09;101060.38;5094248;28;20058;-46
2023/10/16 00:49:05;;;;;;;4.45;2.15;;;;;;;4.79;65.09;101055.22;5078911;28;20079;-51
2023/10/16 00:51:34;;;;;;;4.13;1.90;;;;;;;4.78;64.88;101055.16;5085149;28;20044;-47
2023/10/16 00:54:17;;;;;;;6.15;1.88;;;;;;;4.76;64.89;101050.88;5085191;28;20059;-48
2023/10/16 00:56:45;;;;;;;6.07;2.25;;;;;;;4.74;64.88;101056.75;5082339;28;20048;-48
2023/10/16 00:59:16;;;;;;;5.97;2.58;;;;;;;4.72;64.99;101054.13;5087749;28;20055;-48
2023/10/16 01:01:45;;;;;;;4.32;1.67;;;;;;;4.72;65.46;101053.25;5080260;28;20104;-49
2023/10/16 01:04:13;;;;;;;4.03;2.03;;;;;;;4.71;65.03;101051.50;5086458;28;20048;-50
2023/10/16 01:06:44;;;;;;;4.28;1.50;;;;;;;4.71;65.21;101048.94;5078795;28;20043;-45
2023/10/16 01:09:22;;;;;;;8.13;2.38;;;;;;;4.69;65.12;101048.88;5076658;28;20048;-47
2023/10/16 01:11:52;;;;;;;5.88;2.65;;;;;;;4.68;64.97;101046.25;5081856;28;20052;-47
2023/10/16 01:14:19;;;;;;;7.75;2.03;;;;;;;4.66;65.32;101050.47;5087713;28;20078;-48
2023/10/16 01:16:46;;;;;;;6.38;2.33;;;;;;;4.65;65.24;101046.13;5077940;28;20493;-48
2023/10/16 01:19:19;;;;;;;4.38;1.98;;;;;;;4.61;65.54;101048.59;5065037;28;20037;-48
2023/10/16 01:21:47;;;;;;;4.05;2.25;;;;;;;4.60;65.96;101051.97;5065527;28;20552;-48
2023/10/16 01:24:14;;;;;;;5.43;2.13;;;;;;;4.58;65.17;101045.03;5062560;28;20615;-50
2023/10/16 01:26:42;;;;;;;7.10;2.20;;;;;;;4.52;65.52;101043.09;5062965;28;20075;-47
2023/10/16 01:29:09;;;;;;;6.22;2.17;;;;;;;4.50;65.39;101042.19;5067721;28;20045;-47
2023/10/16 01:31:37;;;;;;;4.68;2.42;;;;;;;4.48;65.85;101039.56;5068942;28;20056;-48
2023/10/16 01:34:04;;;;;;;7.10;1.88;;;;;;;4.48;65.55;101033.53;5087191;28;20062;-46
2023/10/16 01:36:33;;;;;;;4.18;1.95;;;;;;;4.48;65.63;101042.13;5087046;28;20048;-48
2023/10/16 01:39:06;;;;;;;5.60;2.00;;;;;;;4.47;65.54;101037.81;5085281;28;20040;-47
2023/10/16 01:41:34;;;;;;;4.60;1.73;;;;;;;4.48;65.86;101030.97;5086401;28;20044;-49
2023/10/16 01:44:09;;;;;;;3.42;2.05;;;;;;;4.49;65.87;101030.16;5085157;28;20076;-47
2023/10/16 01:46:36;;;;;;;3.72;2.17;;;;;;;4.47;66.04;101017.31;5080995;28;20047;-46
2023/10/16 01:49:05;;;;;;;3.67;1.80;;;;;;;4.48;65.93;101025.84;5087839;28;20121;-49
2023/10/16 01:51:35;;;;;;;5.75;1.83;;;;;;;4.47;66.07;101031.81;5086318;28;20116;-48
2023/10/16 01:54:11;;;;;;;6.15;2.08;;;;;;;4.48;65.89;101028.41;5079001;28;20104;-50
2023/10/16 01:56:37;;;;;;;4.05;2.00;;;;;;;4.47;66.34;101018.97;5082292;28;20044;-45
2023/10/16 01:59:06;;;;;;;7.65;2.13;;;;;;;4.46;65.84;101019.81;5086582;28;20044;-50
2023/10/16 02:01:33;;;;;;;5.25;2.10;;;;;;;4.45;65.89;101024.06;5085982;28;20097;-48
2023/10/16 02:04:02;;;;;;;4.68;2.50;;;;;;;4.45;65.96;101024.06;5086316;28;20090;-45
2023/10/16 02:06:29;;;;;;;8.30;2.47;;;;;;;4.44;65.66;101016.28;5085572;28;20052;-47
2023/10/16 02:08:56;;;;;;;4.18;2.00;;;;;;;4.43;65.94;101014.56;5083659;28;20046;-48
2023/10/16 02:11:23;;;;;;;6.25;2.88;;;;;;;4.44;66.34;101016.28;5085727;28;20052;-51
2023/10/16 02:13:49;;;;;;;4.28;2.80;;;;;;;4.42;66.21;101017.94;5086209;28;20044;-47
2023/10/16 02:16:18;;;;;;;4.85;2.10;;;;;;;4.42;66.43;101017.94;5086252;28;20048;-48
2023/10/16 02:18:47;;;;;;;6.47;2.75;;;;;;;4.42;66.26;101023.94;5084863;28;20144;-50
2023/10/16 02:21:15;;;;;;;4.20;2.60;;;;;;;4.40;66.14;101022.13;5068526;28;20712;-49
2023/10/16 02:23:44;;;;;;;3.53;1.90;;;;;;;4.41;66.26;101011.03;5060463;28;20676;-47
2023/10/16 02:26:12;;;;;;;5.45;2.28;;;;;;;4.40;65.89;101011.88;5064280;28;20041;-48
2023/10/16 02:28:40;;;;;;;7.32;3.15;;;;;;;4.39;66.37;101013.53;5050688;28;20051;-49
2023/10/16 02:31:13;;;;;;;5.07;2.75;;;;;;;4.38;66.32;101016.94;5065590;28;20084;-47
2023/10/16 02:34:12;;;;;;;4.65;2.05;;;;;;;4.36;66.60;101004.03;5065595;28;20303;-47
2023/10/16 02:36:29;;;;;;;7.07;2.80;;;;;;;4.33;66.48;101001.34;5062945;28;20047;-48
2023/10/16 02:38:56;;;;;;;8.95;2.63;;;;;;;4.32;66.56;100996.19;5063428;28;20032;-48
2023/10/16 02:41:23;;;;;;;6.10;3.00;;;;;;;4.29;66.56;100996.06;5064962;28;20049;-48
2023/10/16 02:43:49;;;;;;;8.82;2.58;;;;;;;4.28;66.73;100995.19;5065332;28;20061;-50
2023/10/16 02:46:21;;;;;;;7.50;2.40;;;;;;;4.27;66.44;101001.13;5066108;28;20044;-48
2023/10/16 02:48:48;;;;;;;4.65;1.90;;;;;;;4.24;66.65;100993.31;5063297;28;20069;-50
2023/10/16 02:51:18;;;;;;;6.85;2.25;;;;;;;4.22;66.54;100992.41;5065492;28;20060;-48
2023/10/16 02:53:48;;;;;;;5.00;2.42;;;;;;;4.18;66.64;100987.94;5053762;28;20056;-47
2023/10/16 02:56:14;;;;;;;6.30;2.83;;;;;;;4.16;66.95;100987.03;5062854;28;20287;-48
2023/10/16 02:58:43;;;;;;;4.10;2.40;;;;;;;4.14;66.82;100986.06;5061923;28;20041;-48
2023/10/16 03:01:15;;;;;;;4.43;1.83;;;;;;;4.11;66.74;100992.84;5062458;28;20067;-47
2023/10/16 03:03:46;;;;;;;6.13;2.95;;;;;;;4.07;66.51;100985.84;5059079;28;20110;-48
2023/10/16 03:06:14;;;;;;;5.10;2.88;;;;;;;4.04;67.00;100983.16;5038760;28;20056;-47
2023/10/16 03:08:49;;;;;;;5.57;2.92;;;;;;;4.03;67.07;100984.00;5060524;28;20143;-48
2023/10/16 03:11:17;;;;;;;6.25;2.03;;;;;;;4.02;66.61;100991.63;5064100;28;20053;-48
2023/10/16 03:13:47;;;;;;;6.50;3.05;;;;;;;3.99;67.12;100988.09;5064284;28;20058;-48
2023/10/16 03:16:16;;;;;;;;;;;;;;;3.90;67.26;100976.63;5066639;28;20559;-46
2023/10/16 03:18:47;;;;;;;6.20;2.38;;;;;;;3.91;67.00;100973.22;5065517;28;19921;-47
2023/10/16 03:23:52;;;;;;;5.78;3.95;;;;;;;3.86;67.08;100970.50;5031165;28;20409;-52
2023/10/16 03:29:02;;;;;;;4.25;2.22;;;;;;;3.81;66.50;100970.31;5089815;27;20396;-46
2023/10/16 03:31:29;;;;;;;4.05;2.20;;;;;;;3.78;66.93;100970.19;5053468;28;20045;-46
2023/10/16 03:33:56;;;;;;;5.03;2.72;;;;;;;3.76;66.73;100974.41;5056374;28;20559;-48
2023/10/16 03:36:23;;;;;;;8.48;2.72;;;;;;;3.73;67.27;100967.47;5053293;28;20052;-47
2023/10/16 03:38:51;;;;;;;5.00;2.58;;;;;;;3.72;67.20;100977.66;5053639;28;20072;-48
2023/10/16 03:43:58;;;;;;;6.07;2.70;;;;;;;3.67;67.45;100966.31;5049222;28;20409;-50
2023/10/16 03:46:27;;;;;;;5.63;3.05;;;;;;;3.65;66.88;100970.53;5024413;28;20050;-48
2023/10/16 03:48:55;;;;;;;7.15;2.90;;;;;;;3.62;66.64;100965.25;5032337;28;20103;-46
2023/10/16 03:51:22;;;;;;;7.80;3.53;;;;;;;3.58;66.84;100967.69;5026404;28;20049;-45
2023/10/16 03:53:53;;;;;;;5.45;2.95;;;;;;;3.55;66.73;100965.00;5021998;28;20057;-49
2023/10/16 03:56:20;;;;;;;6.32;2.90;;;;;;;3.52;67.49;100964.91;5022699;28;20694;-47
2023/10/16 03:58:47;;;;;;;5.95;3.30;;;;;;;3.53;67.04;100966.66;5023803;28;20056;-51
2023/10/16 04:01:21;;;;;;;6.35;3.03;;;;;;;3.52;67.37;100970.03;5018529;28;20556;-48
2023/10/16 04:03:50;;;;;;;6.10;2.70;;;;;;;3.53;67.28;100969.22;5024631;28;20065;-51
2023/10/16 04:06:19;;;;;;;7.15;3.80;;;;;;;3.55;66.67;100964.16;5022975;28;20141;-49
2023/10/16 04:08:47;;;;;;;6.05;3.40;;;;;;;3.54;66.94;100963.25;5023395;28;20080;-45
2023/10/16 04:11:16;;;;;;;9.05;3.63;;;;;;;3.53;67.31;100955.50;5021630;28;20045;-47
2023/10/16 04:13:52;;;;;;;7.07;3.25;;;;;;;3.51;67.05;100955.44;5017537;28;20049;-48
2023/10/16 04:21:50;;;;;;;6.03;3.33;;;;;;;3.46;67.81;100949.28;5016203;27;20415;-50
2023/10/16 04:24:40;;;;;;;6.93;2.85;;;;;;;3.46;66.56;100944.16;5004627;28;20050;-50
2023/10/16 04:30:32;;;;;;;6.40;3.70;;;;;;;3.44;66.98;100943.19;5053190;27;20416;-45
2023/10/16 04:32:40;;;;;;;6.22;3.42;;;;;;;3.43;67.78;100944.91;5012363;28;20374;-46
2023/10/16 04:37:55;;;;;;;7.10;3.13;;;;;;;3.40;67.52;100941.31;5033633;28;20045;-45
2023/10/16 04:43:17;;;;;;;6.38;3.42;;;;;;;3.41;67.87;100940.53;5023924;28;20057;-47
2023/10/16 04:45:59;;;;;;;7.75;3.25;;;;;;;3.42;67.79;100934.59;5027928;28;20602;-46
2023/10/16 04:51:20;;;;;;;7.05;3.58;;;;;;;3.41;67.31;100920.03;5026871;28;20134;-47
2023/10/16 05:02:18;;;;;;;8.88;3.88;;;;;;;3.40;66.96;100926.84;5050360;28;20050;-48
2023/10/16 05:10:51;;;;;;;8.77;3.80;;;;;;;3.40;67.44;100915.72;5043300;28;20045;-47
2023/10/16 05:13:55;;;;;;;6.93;3.63;;;;;;;3.38;67.78;100915.66;5018363;28;20053;-48
2023/10/16 05:16:30;;;;;;;9.02;3.47;;;;;;;3.38;67.43;100909.66;5013290;28;20048;-45
2023/10/16 05:18:43;;;;;;;8.25;2.28;;;;;;;3.36;68.17;100906.16;5046192;28;20124;-46
2023/10/16 06:14:14;;;;;;;11.18;4.03;;;;;;;3.42;68.86;100884.25;5002196;28;20046;-48
2023/10/16 06:16:43;;;;;;;7.65;4.13;;;;;;;3.42;68.04;100883.38;5014988;28;20505;-45
2023/10/16 06:19:18;;;;;;;8.02;3.47;;;;;;;3.43;68.24;100882.53;4997667;28;20053;-47
2023/10/16 06:21:46;;;;;;;10.07;4.55;;;;;;;3.43;68.60;100877.41;5004917;28;20279;-54
2023/10/16 06:27:12;;;;;;;7.30;2.90;;;;;;;3.39;67.99;100875.56;5017582;28;19984;-46
2023/10/16 06:29:41;;;;;;;6.10;4.22;;;;;;;3.39;68.98;100883.25;5014340;28;20478;-47
2023/10/16 06:32:18;;;;;;;6.18;3.80;;;;;;;3.39;69.08;100883.25;5001419;28;20042;-47
2023/10/16 06:34:47;;;;;;;7.40;4.07;;;;;;;3.40;68.93;100883.31;5011189;28;20053;-47
2023/10/16 06:37:17;;;;;;;9.00;3.53;;;;;;;3.41;68.43;100882.47;5006523;28;20046;-46
2023/10/16 06:39:46;;;;;;;;;;;;;;;3.37;68.26;100884.88;5004337;28;20046;-46
2023/10/16 06:42:20;;;;;;;8.60;3.05;;;;;;;3.39;68.09;100884.13;5006535;28;19975;-46
2023/10/16 06:44:53;;;;;;;6.00;2.90;;;;;;;3.41;68.36;100885.03;5009314;28;20128;-48
2023/10/16 06:47:41;;;;;;;11.32;4.30;;;;;;;3.42;69.06;100883.38;5008181;28;20073;-47
2023/10/16 06:50:34;;;;;;;11.15;4.38;;;;;;;3.42;68.35;100885.94;4988100;28;20049;-46
2023/10/16 06:53:00;;;;;;;8.70;4.13;;;;;;;3.41;67.84;100894.44;5009002;28;20139;-47
2023/10/16 06:55:27;;;;;;;7.07;2.78;;;;;;;3.38;68.58;100894.31;5007049;28;20081;-48
2023/10/16 06:57:55;;;;;;;5.22;2.88;;;;;;;3.37;67.94;100898.53;5014112;28;20538;-50
2023/10/16 07:00:23;;;;;;;6.95;3.42;;;;;;;3.37;68.12;100888.28;5017737;28;20049;-50
2023/10/16 07:02:58;;;;;;;8.18;2.50;;;;;;;3.38;68.42;100891.75;5007342;28;20049;-48
2023/10/16 07:05:42;;;;;;;7.40;2.88;;;;;;;3.40;68.29;100902.91;5016106;28;20072;-47
2023/10/16 07:08:16;;;;;;;6.43;3.25;;;;;;;3.41;68.25;100904.69;5009675;28;20044;-45
2023/10/16 07:10:49;;;;;;;5.57;2.88;;;;;;;3.42;68.81;100911.53;5004202;28;20046;-47
2023/10/16 07:13:26;;;;;;;6.13;2.97;;;;;;;3.43;68.54;100903.03;5018599;28;20054;-50
2023/10/16 07:15:59;;;;;;;8.82;2.90;;;;;;;3.46;68.78;100903.16;5004369;28;20041;-45
2023/10/16 07:18:28;;;;;;;7.43;3.40;;;;;;;3.50;69.07;100910.16;5013261;28;20052;-48
2023/10/16 07:23:36;;;;;;;7.68;5.07;;;;;;;3.60;68.60;100914.84;5055314;28;20405;-45
2023/10/16 07:26:05;;;;;;;6.93;4.55;;;;;;;3.67;68.90;100912.50;5040753;28;20049;-50
2023/10/16 07:28:32;;;;;;;7.30;4.25;;;;;;;3.72;69.12;100905.91;5038542;28;20052;-47
2023/10/16 07:30:59;;;;;;;7.53;5.10;;;;;;;3.80;68.87;100908.75;5035026;28;20049;-47
2023/10/16 07:33:27;;;;;;;8.27;4.78;;;;;;;3.86;69.16;100904.72;5039313;28;20172;-48
2023/10/16 07:35:55;;;;;;;9.98;5.40;;;;;;;3.95;68.61;100913.59;5030497;28;20132;-50
2023/10/16 07:38:25;;;;;;;9.57;4.93;;;;;;;4.03;69.24;100911.31;5022257;28;20046;-48
2023/10/16 07:40:57;;;;;;;6.55;4.55;;;;;;;4.09;69.03;100916.69;5022579;28;20490;-47
2023/10/16 07:43:27;;;;;;;8.68;5.07;;;;;;;4.16;69.17;100917.78;5038595;28;20060;-48
2023/10/16 07:48:31;;;;;;;7.40;5.05;;;;;;;4.27;68.81;100915.63;5027081;27;20426;-48
2023/10/16 07:50:57;;;;;;;5.97;5.05;;;;;;;4.32;68.66;100914.13;5022658;28;20507;-46
2023/10/16 07:53:24;;;;;;;6.18;5.18;;;;;;;4.39;68.85;100910.09;5022796;28;20177;-48
2023/10/16 07:55:51;;;;;;;10.95;6.63;;;;;;;4.46;68.91;100912.06;5027637;28;20041;-48
2023/10/16 07:58:23;;;;;;;7.60;5.70;;;;;;;4.54;69.03;100913.19;5035664;28;20046;-48
2023/10/16 08:03:46;;;;;;;8.10;3.05;;;;;;;4.70;68.98;100911.19;4994796;28;20403;-49
2023/10/16 08:06:23;;;;;;;7.43;3.50;;;;;;;4.76;68.74;100908.81;4983751;28;20881;-48
2023/10/16 08:09:45;;;;;;;9.63;3.83;;;;;;;4.84;68.68;100904.84;4982629;28;20137;-48
2023/10/16 08:11:42;;;;;;;9.43;3.50;;;;;;;4.93;68.59;100903.41;4978916;28;20065;-46
2023/10/16 08:14:10;;;;;;;;;;;;;;;4.97;68.57;100905.25;4984994;28;20046;-49
2023/10/16 08:16:38;;;;;;;9.50;4.57;;;;;;;5.09;68.36;100892.84;4982638;28;19929;-51
2023/10/16 08:19:24;;;;;;;8.95;4.03;;;;;;;5.23;68.84;100887.25;4984362;28;20578;-48
2023/10/16 08:21:55;;;;;;;10.43;4.50;;;;;;;5.36;68.92;100883.41;4983899;28;20117;-45
2023/10/16 08:24:24;;;;;;;;;;;;;;;5.46;68.78;100889.69;5001655;28;20053;-48
2023/10/16 08:26:52;;;;;;;10.57;5.32;;;;;;;5.61;68.08;100890.19;4989030;28;19961;-45
2023/10/16 08:29:20;;;;;;;12.75;5.00;;;;;;;5.75;67.97;100889.75;4982935;28;20047;-47
2023/10/16 08:32:27;;;;;;;11.60;5.65;;;;;;;5.95;68.32;100890.38;4984276;28;20403;-46
2023/10/16 08:34:35;;;;;;;12.48;5.63;;;;;;;6.17;67.94;100881.63;4965969;28;20050;-46
2023/10/16 08:37:03;;;;;;;13.50;6.05;;;;;;;6.45;68.67;100885.78;4984592;28;20042;-47
2023/10/16 08:39:36;;;;;;;12.52;6.43;;;;;;;6.78;68.63;100885.81;4981470;28;20047;-47
2023/10/16 08:42:18;;;;;;;12.75;6.70;;;;;;;7.26;68.64;100878.41;4975622;28;20142;-49
2023/10/16 08:47:34;;;;;;;8.68;4.57;;;;;;;8.16;66.52;100879.56;4981521;28;20054;-45
2023/10/16 08:50:04;;;;;;;9.90;4.53;;;;;;;8.36;66.82;100877.38;4989305;28;20048;-47
2023/10/16 08:52:34;;;;;;;;;;;;;;;8.45;66.89;100878.41;5001981;28;20132;-49
2023/10/16 08:55:14;;;;;;;7.55;3.00;;;;;;;8.58;65.82;100869.22;4980477;28;19921;-49
2023/10/16 08:57:44;;;;;;;9.65;3.80;;;;;;;8.66;66.44;100875.41;4983387;28;20140;-47
2023/10/16 09:00:19;;;;;;;8.43;3.72;;;;;;;8.73;66.37;100877.25;4983363;28;20611;-50
2023/10/16 09:02:51;;;;;;;7.38;3.97;;;;;;;8.84;65.62;100873.97;4982453;28;20074;-49
2023/10/16 09:05:20;;;;;;;11.48;4.05;;;;;;;8.94;66.20;100875.88;4974110;28;20070;-51
2023/10/16 09:07:48;;;;;;;7.10;3.60;;;;;;;9.07;65.89;100876.09;4983575;28;20053;-46
2023/10/16 09:10:15;;;;;;;9.70;4.35;;;;;;;9.12;65.52;100874.47;4981455;28;20046;-48
2023/10/16 09:12:52;;;;;;;9.65;4.55;;;;;;;9.18;65.41;100877.13;4981691;28;20070;-48
2023/10/16 09:15:24;;;;;;;;;;;;;;;9.23;65.60;100875.47;4968476;28;20049;-45
2023/10/16 09:17:52;;;;;;;11.75;3.95;;;;;;;9.49;65.46;100875.03;4970014;28;20369;-51
2023/10/16 09:20:20;;;;;;;8.23;4.57;;;;;;;9.77;65.74;100880.59;4963883;28;20447;-49
2023/10/16 09:22:49;;;;;;;10.45;4.13;;;;;;;9.99;65.34;100874.84;4969099;28;20054;-50
2023/10/16 09:25:22;;;;;;;9.35;3.90;;;;;;;10.16;65.09;100878.53;4969895;28;20749;-47
2023/10/16 09:28:05;;;;;;;9.75;4.32;;;;;;;10.30;65.23;100875.22;4968418;28;20648;-50
2023/10/16 09:30:33;;;;;;;9.85;4.25;;;;;;;10.37;65.16;100871.84;4968914;28;20063;-51
2023/10/16 09:33:00;;;;;;;8.20;4.38;;;;;;;10.42;65.06;100877.09;4969707;28;20079;-48
2023/10/16 09:35:32;;;;;;;10.60;5.75;;;;;;;10.46;64.63;100871.13;4968510;28;20519;-47
2023/10/16 09:38:18;;;;;;;15.00;5.38;;;;;;;10.46;64.66;100870.25;4973839;28;20073;-48
2023/10/16 09:43:56;;;;;;;;;;;;;;;10.63;64.95;100867.84;4955746;28;20102;-48
2023/10/16 09:49:21;;;;;;;13.57;7.93;;;;;;;11.31;64.41;100858.06;5057054;28;20408;-50
2023/10/16 09:51:50;;;;;;;8.65;6.00;;;;;;;11.57;63.76;100854.78;5021194;28;20050;-48
2023/10/16 09:54:32;;;;;;;9.73;6.05;;;;;;;11.78;64.06;100858.34;5023499;28;20452;-49
2023/10/16 09:57:00;;;;;;;11.77;6.97;;;;;;;12.03;64.32;100861.06;5023367;28;20522;-46
2023/10/16 09:59:33;;;;;;;10.48;5.88;;;;;;;12.31;64.32;100861.22;5022518;28;20046;-49
2023/10/16 10:02:09;;;;;;;12.05;5.60;;;;;;;12.54;63.01;100870.81;5021605;28;20049;-48
2023/10/16 10:04:38;;;;;;;9.30;5.60;;;;;;;12.91;63.70;100863.91;5021177;28;20564;-46
2023/10/16 10:07:19;;;;;;;10.30;5.05;;;;;;;13.35;63.03;100862.19;5023274;28;20133;-49
2023/10/16 10:09:48;;;;;;;11.88;7.72;;;;;;;13.67;62.61;100860.41;5015442;28;20045;-46
2023/10/16 10:12:33;;;;;;;7.22;5.57;;;;;;;14.09;61.25;100861.13;5021899;28;20049;-49
2023/10/16 10:17:39;;;;;;;10.25;3.22;;;;;;;14.67;60.32;100871.25;5025757;27;20413;-46
2023/10/16 10:20:08;;;;;;;7.97;3.40;;;;;;;14.89;59.82;100861.56;5004735;28;20498;-47
2023/10/16 10:22:37;;;;;;;6.38;3.50;;;;;;;15.03;59.47;100865.81;5020962;28;20549;-52
2023/10/16 10:28:09;;;;;;;10.60;3.47;;;;;;;15.20;58.59;100864.81;4996469;28;20057;-50
2023/10/16 10:30:40;;;;;;;8.98;3.08;;;;;;;15.32;58.83;100862.06;5014489;28;20053;-52
2023/10/16 10:33:07;;;;;;;5.32;2.53;;;;;;;15.33;58.21;100850.75;5008381;28;20103;-52
2023/10/16 10:35:43;;;;;;;8.57;3.40;;;;;;;15.23;57.99;100859.56;5013345;28;20053;-50
2023/10/16 10:38:29;;;;;;;6.95;3.75;;;;;;;15.06;57.12;100857.09;5015250;28;20099;-50
2023/10/16 10:43:46;;;;;;;6.40;3.20;;;;;;;14.80;57.11;100855.56;5076186;27;20866;-47
2023/10/16 10:46:25;;;;;;;9.73;4.15;;;;;;;14.68;57.63;100848.63;5039281;28;20053;-50
2023/10/16 10:48:56;;;;;;;5.35;3.20;;;;;;;14.63;57.38;100849.53;5012565;28;20112;-48
2023/10/16 10:51:34;;;;;;;8.98;3.38;;;;;;;14.57;57.52;100849.59;5031810;28;20084;-51
2023/10/16 10:54:06;;;;;;;13.20;5.60;;;;;;;14.45;57.83;100854.91;5037699;28;20518;-49
2023/10/16 10:56:39;;;;;;;10.40;3.55;;;;;;;14.26;56.87;100845.41;5042358;28;20049;-48
2023/10/16 10:59:10;;;;;;;45.72;15.82;;;;;;;14.18;57.84;100846.34;5041902;28;20049;-52
2023/10/16 11:01:51;;;;;;;25.08;8.88;;;;;;;14.14;58.01;100843.75;5037986;28;20055;-52
2023/10/16 11:04:20;;;;;;;10.35;5.25;;;;;;;14.11;58.38;100833.34;5040115;28;20505;-47
2023/10/16 11:06:49;;;;;;;6.88;3.47;;;;;;;14.06;57.83;100837.72;5041015;28;20059;-46
2023/10/16 11:09:20;;;;;;;6.03;2.95;;;;;;;13.94;58.05;100827.31;5032160;28;20042;-51
2023/10/16 11:11:48;;;;;;;10.65;7.00;;;;;;;13.78;57.55;100822.19;5038908;28;20041;-46
2023/10/16 11:14:15;;;;;;;5.47;2.63;;;;;;;13.65;57.29;100815.31;5033556;28;20048;-51
2023/10/16 11:16:45;;;;;;;2.50;1.70;;;;;;;13.49;58.08;100816.22;5039803;28;20041;-48
2023/10/16 11:19:18;;;;;;;4.07;1.77;;;;;;;13.40;57.43;100817.94;5026024;28;20491;-48
2023/10/16 11:21:47;;;;;;;4.03;1.60;;;;;;;13.33;57.93;100814.47;5041570;28;20624;-49
2023/10/16 11:24:14;;;;;;;3.67;1.83;;;;;;;13.29;56.88;100813.63;5034430;28;20050;-46
2023/10/16 11:26:45;;;;;;;2.58;2.10;;;;;;;13.25;58.21;100811.91;5038484;28;20045;-50
2023/10/16 11:29:12;;;;;;;3.92;1.52;;;;;;;13.25;58.24;100814.50;5039002;28;20470;-48
2023/10/16 11:31:41;;;;;;;5.88;1.92;;;;;;;13.24;57.64;100802.34;5027789;28;20049;-50
2023/10/16 11:34:12;;;;;;;2.40;0.95;;;;;;;13.22;56.69;100801.50;5037594;28;20067;-46
2023/10/16 11:36:39;;;;;;;3.63;1.60;;;;;;;13.23;57.02;100798.00;5036259;28;20052;-51
2023/10/16 11:39:19;;;;;;;4.50;1.60;;;;;;;13.24;58.16;100794.53;5040588;28;20052;-46
2023/10/16 11:41:48;;;;;;;3.85;2.22;;;;;;;13.28;57.16;100787.59;5029355;28;20065;-49
2023/10/16 11:44:16;;;;;;;3.55;1.55;;;;;;;13.25;56.52;100796.28;5032288;28;20072;-47
2023/10/16 11:46:46;;;;;;;3.17;1.67;;;;;;;13.25;56.48;100791.09;5034515;28;20041;-49
2023/10/16 11:49:22;;;;;;;2.85;1.02;;;;;;;13.22;56.65;100791.09;5040813;28;20548;-50
2023/10/16 11:51:51;;;;;;;3.50;1.58;;;;;;;13.18;55.80;100784.16;5031365;28;20056;-48
2023/10/16 11:54:23;;;;;;;3.53;1.65;;;;;;;13.18;56.30;100784.16;5025837;28;20077;-46
2023/10/16 11:56:53;;;;;;;3.47;1.88;;;;;;;13.22;56.57;100778.06;5027944;28;20111;-48
2023/10/16 11:59:25;;;;;;;2.65;1.30;;;;;;;13.26;55.71;100777.19;5016068;28;20407;-48
2023/10/16 12:01:53;;;;;;;3.20;0.93;;;;;;;13.29;55.83;100781.53;5022610;28;20045;-50
2023/10/16 12:04:41;;;;;;;2.13;0.90;;;;;;;13.28;55.09;100780.69;5021916;28;20053;-48
2023/10/16 12:07:09;;;;;;;2.25;1.02;;;;;;;13.29;54.67;100772.00;5023097;28;20053;-48
2023/10/16 12:09:38;;;;;;;4.45;1.95;;;;;;;13.31;55.06;100774.59;5024802;28;20096;-46
2023/10/16 12:12:06;;;;;;;5.40;2.25;;;;;;;13.41;56.09;100765.03;5019441;28;20042;-46
2023/10/16 12:14:37;;;;;;;5.18;2.78;;;;;;;13.46;55.90;100763.28;5023625;28;20651;-51
2023/10/16 12:17:11;;;;;;;4.60;1.48;;;;;;;13.58;55.86;100773.66;5019070;28;20041;-46
2023/10/16 12:19:39;;;;;;;5.53;3.65;;;;;;;13.66;56.01;100770.16;5016645;28;20053;-47
2023/10/16 12:22:08;;;;;;;5.65;2.47;;;;;;;13.66;55.69;100759.75;5028373;28;20041;-49
2023/10/16 12:24:35;;;;;;;5.25;1.73;;;;;;;13.73;56.08;100756.25;5010526;28;20053;-49
2023/10/16 12:27:02;;;;;;;3.28;1.77;;;;;;;13.74;55.84;100752.78;5024959;28;20049;-48
2023/10/16 12:29:28;;;;;;;5.25;1.67;;;;;;;13.79;55.86;100745.84;5020571;28;20559;-50
2023/10/16 12:31:55;;;;;;;3.15;2.30;;;;;;;13.85;55.29;100739.72;5019962;28;20049;-50
2023/10/16 12:34:24;;;;;;;6.10;1.70;;;;;;;13.94;55.01;100744.00;5022476;28;20050;-47
2023/10/16 12:36:50;;;;;;;2.90;1.45;;;;;;;13.94;55.39;100744.88;5023191;28;20082;-46
2023/10/16 12:39:18;;;;;;;4.03;2.47;;;;;;;13.92;54.79;100745.75;5016326;28;20042;-48
2023/10/16 12:41:45;;;;;;;3.40;1.80;;;;;;;13.96;54.71;100743.13;5019947;28;20111;-47
2023/10/16 12:44:11;;;;;;;3.50;1.85;;;;;;;14.03;54.71;100736.16;5018538;28;20037;-48
2023/10/16 12:46:52;;;;;;;4.97;1.45;;;;;;;14.08;55.24;100742.19;5023706;28;20046;-48
2023/10/16 12:49:18;;;;;;;3.90;1.98;;;;;;;14.16;55.36;100734.34;5019268;28;20049;-49
2023/10/16 12:51:45;;;;;;;2.97;1.88;;;;;;;14.24;54.35;100726.44;5017326;28;20046;-49
2023/10/16 12:54:12;;;;;;;3.95;2.08;;;;;;;14.27;54.72;100721.22;5015554;28;20055;-47
2023/10/16 12:56:43;;;;;;;5.68;1.90;;;;;;;14.30;54.97;100723.81;5021034;28;20944;-50
2023/10/16 12:59:11;;;;;;;5.00;2.42;;;;;;;14.27;54.06;100722.09;5024520;28;20075;-48
2023/10/16 13:01:38;;;;;;;4.13;2.28;;;;;;;14.29;54.71;100722.09;5009311;28;20168;-51
2023/10/16 13:04:13;;;;;;;4.72;2.05;;;;;;;14.35;53.73;100729.84;5021100;28;20047;-48
2023/10/16 13:06:40;;;;;;;3.85;1.50;;;;;;;14.37;54.04;100722.91;5015432;28;20069;-48
2023/10/16 13:09:14;;;;;;;4.07;1.70;;;;;;;14.34;54.01;100717.69;5021511;28;20099;-48
2023/10/16 13:11:42;;;;;;;5.13;2.33;;;;;;;14.33;54.20;100715.97;5014644;28;20056;-46
2023/10/16 13:14:11;;;;;;;5.00;1.92;;;;;;;14.30;54.12;100716.00;5015563;28;20057;-49
2023/10/16 13:16:40;;;;;;;5.05;3.58;;;;;;;14.25;53.96;100720.34;5020814;28;20511;-48
2023/10/16 13:19:09;;;;;;;3.83;1.63;;;;;;;14.18;53.70;100723.91;5016593;28;20052;-52
2023/10/16 13:21:41;;;;;;;3.53;1.70;;;;;;;14.10;53.90;100714.41;5015863;28;20056;-49
2023/10/16 13:24:09;;;;;;;16.55;9.73;;;;;;;14.05;54.06;100710.09;5007398;28;20050;-47
2023/10/16 13:26:37;;;;;;;9.45;5.75;;;;;;;14.03;54.27;100707.50;5020305;28;20061;-50
2023/10/16 13:29:07;;;;;;;5.80;3.05;;;;;;;14.02;53.76;100700.56;5015515;28;20081;-46
2023/10/16 13:31:37;;;;;;;5.50;3.72;;;;;;;13.95;54.07;100694.50;5021286;28;20195;-49
2023/10/16 13:34:04;;;;;;;4.45;2.30;;;;;;;13.87;54.29;100696.31;5020404;28;20506;-49
2023/10/16 13:36:35;;;;;;;5.20;1.90;;;;;;;13.77;54.71;100695.50;5015082;28;20050;-47
2023/10/16 13:39:08;;;;;;;3.35;2.05;;;;;;;13.70;54.48;100683.38;5020109;28;20049;-47
2023/10/16 13:41:50;;;;;;;4.88;1.90;;;;;;;13.61;53.61;100674.75;5023882;28;20060;-46
2023/10/16 13:44:19;;;;;;;2.90;1.75;;;;;;;13.52;54.55;100682.63;5013692;28;20426;-49
2023/10/16 13:46:46;;;;;;;5.63;2.17;;;;;;;13.43;54.33;100675.69;5014495;28;20461;-46
2023/10/16 13:49:14;;;;;;;3.03;1.48;;;;;;;13.36;53.99;100685.25;5027016;28;20041;-47